Time;durP1;ratioP1;P1;durP2;ratioP2;P2;SDS_P1;SDS_P2;PMS_P1;PMS_P2;Temp;Humidity;BMP_temperature;BMP_pressure;BME280_temperature;BME280_humidity;BME280_pressure;Samples;Min_cycle;Max_cycle;Signal;HPM_P1;HPM_P2
2023/05/11 00:00:24;;;;;;;;;;;;;;;;;;5073432;28;19940;-68
2023/05/11 00:02:51;;;;;;;;;;;;;;;;;;5078509;28;20342;-68
2023/05/11 00:05:18;;;;;;;;;;;;;;;;;;5080701;28;19970;-68
2023/05/11 00:07:45;;;;;;;;;;;;;;;;;;5078619;28;19970;-68
2023/05/11 00:10:12;;;;;;;;;;;;;;;;;;5080268;28;19924;-68
2023/05/11 00:12:40;;;;;;;;;;;;;;;;;;5070916;28;20210;-68
2023/05/11 00:15:08;;;;;;;;;;;;;;;;;;5071533;28;20019;-69
2023/05/11 00:17:35;;;;;;;;;;;;;;;;;;5072096;28;19924;-69
2023/05/11 00:20:02;;;;;;;;;;;;;;;;;;5072258;28;19932;-68
2023/05/11 00:22:29;;;;;;;;;;;;;;;;;;5077856;28;19986;-68
2023/05/11 00:24:56;;;;;;;;;;;;;;;;;;5078673;28;20028;-68
2023/05/11 00:27:23;;;;;;;;;;;;;;;;;;5078098;28;19928;-68
2023/05/11 00:29:50;;;;;;;;;;;;;;;;;;5068958;28;19963;-69
2023/05/11 00:32:17;;;;;;;;;;;;;;;;;;5070501;28;19924;-68
2023/05/11 00:34:43;;;;;;;;;;;;;;;;;;5072430;28;19929;-69
2023/05/11 00:37:10;;;;;;;;;;;;;;;;;;5071651;28;19925;-68
2023/05/11 00:39:39;;;;;;;;;;;;;;;;;;5070279;28;20371;-69
2023/05/11 00:42:06;;;;;;;;;;;;;;;;;;5072039;28;19928;-68
2023/05/11 00:44:33;;;;;;;;;;;;;;;;;;5072805;28;19931;-68
2023/05/11 00:47:00;;;;;;;;;;;;;;;;;;5072111;28;20391;-68
2023/05/11 00:49:27;;;;;;;;;;;;;;;;;;5072617;28;19978;-68
2023/05/11 00:51:54;;;;;;;;;;;;;;;;;;5072289;28;19932;-68
2023/05/11 00:54:21;;;;;;;;;;;;;;;;;;5071772;28;19924;-68
2023/05/11 00:56:48;;;;;;;;;;;;;;;;;;5072061;28;20017;-68
2023/05/11 00:59:15;;;;;;;;;;;;;;;;;;5070881;28;19976;-68
2023/05/11 01:01:42;;;;;;;;;;;;;;;;;;5075532;28;19925;-68
2023/05/11 01:04:10;;;;;;;;;;;;;;;;;;5071294;28;19928;-68
2023/05/11 01:06:41;;;;;;;;;;;;;;;;;;5071363;28;19966;-68
2023/05/11 01:09:08;;;;;;;;;;;;;;;;;;5068282;28;19928;-69
2023/05/11 01:11:35;;;;;;;;;;;;;;;;;;5070068;28;19960;-68
2023/05/11 01:14:02;;;;;;;;;;;;;;;;;;5071114;28;20330;-68
2023/05/11 01:16:29;;;;;;;;;;;;;;;;;;5065617;28;19928;-69
2023/05/11 01:18:56;;;;;;;;;;;;;;;;;;5080282;28;19970;-68
2023/05/11 01:21:23;;;;;;;;;;;;;;;;;;5073981;28;19928;-68
2023/05/11 01:23:50;;;;;;;;;;;;;;;;;;5083541;28;19924;-68
2023/05/11 01:26:17;;;;;;;;;;;;;;;;;;5073401;28;19951;-68
2023/05/11 01:28:44;;;;;;;;;;;;;;;;;;5067672;28;20342;-68
2023/05/11 01:31:11;;;;;;;;;;;;;;;;;;5084477;28;20001;-68
2023/05/11 01:33:38;;;;;;;;;;;;;;;;;;5081478;28;19928;-67
2023/05/11 01:36:05;;;;;;;;;;;;;;;;;;5073187;28;19924;-68
2023/05/11 01:38:32;;;;;;;;;;;;;;;;;;5075740;28;19989;-70
2023/05/11 01:40:59;;;;;;;;;;;;;;;;;;5071451;28;19924;-68
2023/05/11 01:43:26;;;;;;;;;;;;;;;;;;5090725;28;19924;-68
2023/05/11 01:45:53;;;;;;;;;;;;;;;;;;5091438;28;20028;-68
2023/05/11 01:48:20;;;;;;;;;;;;;;;;;;5082730;28;19978;-68
2023/05/11 01:50:47;;;;;;;;;;;;;;;;;;5074404;28;19931;-68
2023/05/11 01:53:14;;;;;;;;;;;;;;;;;;5081194;28;20350;-68
2023/05/11 01:55:41;;;;;;;;;;;;;;;;;;5075342;28;20379;-68
2023/05/11 01:58:08;;;;;;;;;;;;;;;;;;5066425;28;19924;-68
2023/05/11 02:00:35;;;;;;;;;;;;;;;;;;5065535;28;20349;-68
2023/05/11 02:03:02;;;;;;;;;;;;;;;;;;5079156;28;19924;-68
2023/05/11 02:05:29;;;;;;;;;;;;;;;;;;5072456;28;20433;-68
2023/05/11 02:07:56;;;;;;;;;;;;;;;;;;5071637;28;19925;-68
2023/05/11 02:10:23;;;;;;;;;;;;;;;;;;5071154;28;19924;-68
2023/05/11 02:12:51;;;;;;;;;;;;;;;;;;5080635;28;20328;-68
2023/05/11 02:15:18;;;;;;;;;;;;;;;;;;5090475;28;19932;-68
2023/05/11 02:17:45;;;;;;;;;;;;;;;;;;5090297;28;19925;-68
2023/05/11 02:20:12;;;;;;;;;;;;;;;;;;5070640;28;19925;-68
2023/05/11 02:22:39;;;;;;;;;;;;;;;;;;5069661;28;20310;-68
2023/05/11 02:25:06;;;;;;;;;;;;;;;;;;5073583;28;20007;-68
2023/05/11 02:27:34;;;;;;;;;;;;;;;;;;5071244;28;19928;-68
2023/05/11 02:30:01;;;;;;;;;;;;;;;;;;5069490;28;19925;-68
2023/05/11 02:32:28;;;;;;;;;;;;;;;;;;5088562;28;20451;-68
2023/05/11 02:34:55;;;;;;;;;;;;;;;;;;5088800;28;19924;-69
2023/05/11 02:37:22;;;;;;;;;;;;;;;;;;5075244;28;19924;-69
2023/05/11 02:39:49;;;;;;;;;;;;;;;;;;5070750;28;19928;-68
2023/05/11 02:42:16;;;;;;;;;;;;;;;;;;5079557;28;20441;-68
2023/05/11 02:44:43;;;;;;;;;;;;;;;;;;5082624;28;19970;-68
2023/05/11 02:47:10;;;;;;;;;;;;;;;;;;5073136;28;19972;-68
2023/05/11 02:49:38;;;;;;;;;;;;;;;;;;5066259;28;20328;-69
2023/05/11 02:52:04;;;;;;;;;;;;;;;;;;5090675;28;19924;-68
2023/05/11 02:54:32;;;;;;;;;;;;;;;;;;5078552;28;19967;-68
2023/05/11 02:56:58;;;;;;;;;;;;;;;;;;5089234;28;19931;-68
2023/05/11 02:59:25;;;;;;;;;;;;;;;;;;5079621;28;19978;-66
2023/05/11 03:01:52;;;;;;;;;;;;;;;;;;5088843;28;19929;-67
2023/05/11 03:04:19;;;;;;;;;;;;;;;;;;5092419;28;19924;-68
2023/05/11 03:06:46;;;;;;;;;;;;;;;;;;5094636;28;19932;-68
2023/05/11 03:09:13;;;;;;;;;;;;;;;;;;5076341;28;19925;-68
2023/05/11 03:11:41;;;;;;;;;;;;;;;;;;5087969;28;19924;-68
2023/05/11 03:14:08;;;;;;;;;;;;;;;;;;5086561;28;19924;-68
2023/05/11 03:16:35;;;;;;;;;;;;;;;;;;5090847;28;20539;-69
2023/05/11 03:19:02;;;;;;;;;;;;;;;;;;5078651;28;19974;-68
2023/05/11 03:21:29;;;;;;;;;;;;;;;;;;5088093;28;19978;-68
2023/05/11 03:23:56;;;;;;;;;;;;;;;;;;5079627;28;19970;-68
2023/05/11 03:26:23;;;;;;;;;;;;;;;;;;5054165;28;20466;-68
2023/05/11 03:28:50;;;;;;;;;;;;;;;;;;5079712;28;20007;-68
2023/05/11 03:31:17;;;;;;;;;;;;;;;;;;5079706;28;20109;-69
2023/05/11 03:33:44;;;;;;;;;;;;;;;;;;5087022;28;19930;-68
2023/05/11 03:36:11;;;;;;;;;;;;;;;;;;5071676;28;19924;-69
2023/05/11 03:38:38;;;;;;;;;;;;;;;;;;5072245;28;19989;-69
2023/05/11 03:41:05;;;;;;;;;;;;;;;;;;5069272;28;19966;-68
2023/05/11 03:43:32;;;;;;;;;;;;;;;;;;5068262;28;19943;-67
2023/05/11 03:45:59;;;;;;;;;;;;;;;;;;5060020;28;19924;-68
2023/05/11 03:48:26;;;;;;;;;;;;;;;;;;5072555;28;19929;-68
2023/05/11 03:50:53;;;;;;;;;;;;;;;;;;5076583;28;19977;-69
2023/05/11 03:53:20;;;;;;;;;;;;;;;;;;5082085;28;19931;-68
2023/05/11 03:55:48;;;;;;;;;;;;;;;;;;5077835;28;20407;-67
2023/05/11 03:58:15;;;;;;;;;;;;;;;;;;5079715;28;19939;-68
2023/05/11 04:00:42;;;;;;;;;;;;;;;;;;5082701;28;19925;-69
2023/05/11 04:03:09;;;;;;;;;;;;;;;;;;5078696;28;19971;-68
2023/05/11 04:05:36;;;;;;;;;;;;;;;;;;5092069;28;19993;-68
2023/05/11 04:08:03;;;;;;;;;;;;;;;;;;5082965;28;20391;-68
2023/05/11 04:10:31;;;;;;;;;;;;;;;;;;5069705;28;19924;-69
2023/05/11 04:12:58;;;;;;;;;;;;;;;;;;5076735;28;19977;-68
2023/05/11 04:15:24;;;;;;;;;;;;;;;;;;5092816;28;19928;-68
2023/05/11 04:17:52;;;;;;;;;;;;;;;;;;5091413;28;20009;-68
2023/05/11 04:20:19;;;;;;;;;;;;;;;;;;5084053;28;19932;-68
2023/05/11 04:22:46;;;;;;;;;;;;;;;;;;5091421;28;19932;-68
2023/05/11 04:25:13;;;;;;;;;;;;;;;;;;5075531;28;19925;-69
2023/05/11 04:27:40;;;;;;;;;;;;;;;;;;5088062;28;20345;-70
2023/05/11 04:30:07;;;;;;;;;;;;;;;;;;5071588;28;19935;-69
2023/05/11 04:32:34;;;;;;;;;;;;;;;;;;5071166;28;19975;-69
2023/05/11 04:35:01;;;;;;;;;;;;;;;;;;5071317;28;19925;-69
2023/05/11 04:37:28;;;;;;;;;;;;;;;;;;5070255;28;19931;-68
2023/05/11 04:39:55;;;;;;;;;;;;;;;;;;5069900;28;20395;-69
2023/05/11 04:42:22;;;;;;;;;;;;;;;;;;5071474;28;20366;-68
2023/05/11 04:44:49;;;;;;;;;;;;;;;;;;5070520;28;19925;-69
2023/05/11 04:47:16;;;;;;;;;;;;;;;;;;5081558;28;20360;-69
2023/05/11 04:49:44;;;;;;;;;;;;;;;;;;5081589;28;19924;-69
2023/05/11 04:52:11;;;;;;;;;;;;;;;;;;5063732;28;20019;-69
2023/05/11 04:54:38;;;;;;;;;;;;;;;;;;5074340;28;19924;-68
2023/05/11 04:57:05;;;;;;;;;;;;;;;;;;5071420;28;19971;-68
2023/05/11 04:59:32;;;;;;;;;;;;;;;;;;5075589;28;19931;-67
2023/05/11 05:01:59;;;;;;;;;;;;;;;;;;5071412;28;19924;-68
2023/05/11 05:04:26;;;;;;;;;;;;;;;;;;5071391;28;19924;-68
2023/05/11 05:06:53;;;;;;;;;;;;;;;;;;5071784;28;19924;-68
2023/05/11 05:09:20;;;;;;;;;;;;;;;;;;5070249;28;20418;-67
2023/05/11 05:11:47;;;;;;;;;;;;;;;;;;5070331;28;19928;-68
2023/05/11 05:14:15;;;;;;;;;;;;;;;;;;5071403;28;19925;-69
2023/05/11 05:16:42;;;;;;;;;;;;;;;;;;5069328;28;19986;-69
2023/05/11 05:19:11;;;;;;;;;;;;;;;;;;5069345;28;19928;-68
2023/05/11 05:21:39;;;;;;;;;;;;;;;;;;5068883;28;19960;-67
2023/05/11 05:24:09;;;;;;;;;;;;;;;;;;5077750;28;19947;-69
2023/05/11 05:26:36;;;;;;;;;;;;;;;;;;5066002;28;19931;-69
2023/05/11 05:29:03;;;;;;;;;;;;;;;;;;5068561;28;19925;-68
2023/05/11 05:31:30;;;;;;;;;;;;;;;;;;5077466;28;19931;-68
2023/05/11 05:33:57;;;;;;;;;;;;;;;;;;5068753;28;19928;-67
2023/05/11 05:36:24;;;;;;;;;;;;;;;;;;5070868;28;19963;-67
2023/05/11 05:38:51;;;;;;;;;;;;;;;;;;5063972;28;19928;-67
2023/05/11 05:41:21;;;;;;;;;;;;;;;;;;5068986;28;19993;-68
2023/05/11 05:43:48;;;;;;;;;;;;;;;;;;5068629;28;19925;-67
2023/05/11 05:46:15;;;;;;;;;;;;;;;;;;5063436;28;20019;-68
2023/05/11 05:48:42;;;;;;;;;;;;;;;;;;5068217;28;19970;-67
2023/05/11 05:51:09;;;;;;;;;;;;;;;;;;5068653;28;20379;-68
2023/05/11 05:53:37;;;;;;;;;;;;;;;;;;5068048;28;19964;-68
2023/05/11 05:56:04;;;;;;;;;;;;;;;;;;5062204;28;20466;-68
2023/05/11 05:58:31;;;;;;;;;;;;;;;;;;5068957;28;19932;-68
2023/05/11 06:00:58;;;;;;;;;;;;;;;;;;5067987;28;20007;-68
2023/05/11 06:03:25;;;;;;;;;;;;;;;;;;5065915;28;20040;-68
2023/05/11 06:05:52;;;;;;;;;;;;;;;;;;5066572;28;19978;-68
2023/05/11 06:08:19;;;;;;;;;;;;;;;;;;5073472;28;19970;-69
2023/05/11 06:10:46;;;;;;;;;;;;;;;;;;5071654;28;20006;-70
2023/05/11 06:13:13;;;;;;;;;;;;;;;;;;5052996;28;19932;-68
2023/05/11 06:15:40;;;;;;;;;;;;;;;;;;5070565;28;20385;-68
2023/05/11 06:18:07;;;;;;;;;;;;;;;;;;5064861;28;20008;-68
2023/05/11 06:20:34;;;;;;;;;;;;;;;;;;5070026;28;19924;-68
2023/05/11 06:23:01;;;;;;;;;;;;;;;;;;5075027;28;20051;-68
2023/05/11 06:25:28;;;;;;;;;;;;;;;;;;5072883;28;20073;-68
2023/05/11 06:27:55;;;;;;;;;;;;;;;;;;5071891;28;19928;-68
2023/05/11 06:30:22;;;;;;;;;;;;;;;;;;5072847;28;20019;-69
2023/05/11 06:32:49;;;;;;;;;;;;;;;;;;5071845;28;20318;-68
2023/05/11 06:35:16;;;;;;;;;;;;;;;;;;5071821;28;19978;-69
2023/05/11 06:37:43;;;;;;;;;;;;;;;;;;5074075;28;19977;-68
2023/05/11 06:40:10;;;;;;;;;;;;;;;;;;5073206;28;19924;-68
2023/05/11 06:42:37;;;;;;;;;;;;;;;;;;5073029;28;19928;-69
2023/05/11 06:45:04;;;;;;;;;;;;;;;;;;5068998;28;19933;-68
2023/05/11 06:47:32;;;;;;;;;;;;;;;;;;5076208;28;20352;-68
2023/05/11 06:49:59;;;;;;;;;;;;;;;;;;5074389;28;19924;-68
2023/05/11 06:52:26;;;;;;;;;;;;;;;;;;5073235;28;20015;-68
2023/05/11 06:54:53;;;;;;;;;;;;;;;;;;5073365;28;20452;-69
2023/05/11 06:57:20;;;;;;;;;;;;;;;;;;5076758;28;19924;-69
2023/05/11 06:59:47;;;;;;;;;;;;;;;;;;5074720;28;19928;-68
2023/05/11 07:02:14;;;;;;;;;;;;;;;;;;5070198;28;19978;-68
2023/05/11 07:04:41;;;;;;;;;;;;;;;;;;5064601;28;19967;-68
2023/05/11 07:07:10;;;;;;;;;;;;;;;;;;5069626;28;19929;-68
2023/05/11 07:09:37;;;;;;;;;;;;;;;;;;5067915;28;19928;-68
2023/05/11 07:12:04;;;;;;;;;;;;;;;;;;5071980;28;19924;-69
2023/05/11 07:14:31;;;;;;;;;;;;;;;;;;5073489;28;19932;-68
2023/05/11 07:16:58;;;;;;;;;;;;;;;;;;5071275;28;19954;-69
2023/05/11 07:19:25;;;;;;;;;;;;;;;;;;5070566;28;19978;-69
2023/05/11 07:21:52;;;;;;;;;;;;;;;;;;5071892;28;19924;-68
2023/05/11 07:24:19;;;;;;;;;;;;;;;;;;5071781;28;19925;-69
2023/05/11 07:26:47;;;;;;;;;;;;;;;;;;5071980;28;19944;-67
2023/05/11 07:29:15;;;;;;;;;;;;;;;;;;5068555;28;19924;-68
2023/05/11 07:31:42;;;;;;;;;;;;;;;;;;5066340;28;20267;-68
2023/05/11 07:34:09;;;;;;;;;;;;;;;;;;5064738;28;19932;-68
2023/05/11 07:36:36;;;;;;;;;;;;;;;;;;5070770;28;19924;-68
2023/05/11 07:39:03;;;;;;;;;;;;;;;;;;5062426;28;19924;-68
2023/05/11 07:41:30;;;;;;;;;;;;;;;;;;5068345;28;19928;-68
2023/05/11 07:43:57;;;;;;;;;;;;;;;;;;5069727;28;19928;-61
2023/05/11 07:46:24;;;;;;;;;;;;;;;;;;5067820;28;19928;-61
2023/05/11 07:48:51;;;;;;;;;;;;;;;;;;5071460;28;20244;-60
2023/05/11 07:51:18;;;;;;;;;;;;;;;;;;5068804;28;19925;-67
2023/05/11 07:53:45;;;;;;;;;;;;;;;;;;5071723;28;20333;-67
2023/05/11 07:56:12;;;;;;;;;;;;;;;;;;5071044;28;19925;-68
2023/05/11 07:58:39;;;;;;;;;;;;;;;;;;5070923;28;19924;-64
2023/05/11 08:01:06;;;;;;;;;;;;;;;;;;5067948;28;20013;-65
2023/05/11 08:03:33;;;;;;;;;;;;;;;;;;5067538;28;19925;-67
2023/05/11 08:06:00;;;;;;;;;;;;;;;;;;5069256;28;19971;-68
2023/05/11 08:08:27;;;;;;;;;;;;;;;;;;5074905;28;19928;-66
2023/05/11 08:10:54;;;;;;;;;;;;;;;;;;5071414;28;19979;-65
2023/05/11 08:13:21;;;;;;;;;;;;;;;;;;5071494;28;19924;-66
2023/05/11 08:15:48;;;;;;;;;;;;;;;;;;5085851;28;20344;-65
2023/05/11 08:18:15;;;;;;;;;;;;;;;;;;5074087;28;19978;-66
2023/05/11 08:20:42;;;;;;;;;;;;;;;;;;5071204;28;19970;-65
2023/05/11 08:23:15;;;;;;;;;;;;;;;;;;5071636;28;19963;-66
2023/05/11 08:25:42;;;;;;;;;;;;;;;;;;5063436;28;20645;-67
2023/05/11 08:28:09;;;;;;;;;;;;;;;;;;5066304;28;20441;-67
2023/05/11 08:30:36;;;;;;;;;;;;;;;;;;5070691;28;19924;-68
2023/05/11 08:33:03;;;;;;;;;;;;;;;;;;5059553;28;20400;-69
2023/05/11 08:35:30;;;;;;;;;;;;;;;;;;5070992;28;19925;-70
2023/05/11 08:37:57;;;;;;;;;;;;;;;;;;5054879;28;19932;-68
2023/05/11 08:40:24;;;;;;;;;;;;;;;;;;5063039;28;19936;-67
2023/05/11 08:42:52;;;;;;;;;;;;;;;;;;5066595;28;19924;-67
2023/05/11 08:45:19;;;;;;;;;;;;;;;;;;5069673;28;19924;-65
2023/05/11 08:47:46;;;;;;;;;;;;;;;;;;5066525;28;19928;-63
2023/05/11 08:50:13;;;;;;;;;;;;;;;;;;5071745;28;19932;-66
2023/05/11 08:52:40;;;;;;;;;;;;;;;;;;5071957;28;19978;-67
2023/05/11 08:55:07;;;;;;;;;;;;;;;;;;5073854;28;19962;-67
2023/05/11 08:57:34;;;;;;;;;;;;;;;;;;5064485;28;19985;-68
2023/05/11 09:00:01;;;;;;;;;;;;;;;;;;5070591;28;19985;-68
2023/05/11 09:02:28;;;;;;;;;;;;;;;;;;5072398;28;19970;-68
2023/05/11 09:04:56;;;;;;;;;;;;;;;;;;5072120;28;19925;-68
2023/05/11 09:07:23;;;;;;;;;;;;;;;;;;5071725;28;19924;-67
2023/05/11 09:09:50;;;;;;;;;;;;;;;;;;5066399;28;19924;-68
2023/05/11 09:12:17;;;;;;;;;;;;;;;;;;5069594;28;19970;-69
2023/05/11 09:14:45;;;;;;;;;;;;;;;;;;5071509;28;19925;-69
2023/05/11 09:17:12;;;;;;;;;;;;;;;;;;5067915;28;19925;-68
2023/05/11 09:19:39;;;;;;;;;;;;;;;;;;5065714;28;19924;-68
2023/05/11 09:22:06;;;;;;;;;;;;;;;;;;5074222;28;19925;-70
2023/05/11 09:24:33;;;;;;;;;;;;;;;;;;5070315;28;19978;-69
2023/05/11 09:27:00;;;;;;;;;;;;;;;;;;5073707;28;19986;-68
2023/05/11 09:29:27;;;;;;;;;;;;;;;;;;5065866;28;19930;-68
2023/05/11 09:31:54;;;;;;;;;;;;;;;;;;5065152;28;20395;-69
2023/05/11 09:34:21;;;;;;;;;;;;;;;;;;5070751;28;19924;-69
2023/05/11 09:36:48;;;;;;;;;;;;;;;;;;5069469;28;19929;-69
2023/05/11 09:39:15;;;;;;;;;;;;;;;;;;5066592;28;19978;-69
2023/05/11 09:41:42;;;;;;;;;;;;;;;;;;5067404;28;19947;-68
2023/05/11 09:44:10;;;;;;;;;;;;;;;;;;5074289;28;19978;-68
2023/05/11 09:46:37;;;;;;;;;;;;;;;;;;5074031;28;20271;-68
2023/05/11 09:49:04;;;;;;;;;;;;;;;;;;5073223;28;20018;-68
2023/05/11 09:51:31;;;;;;;;;;;;;;;;;;5073373;28;19925;-69
2023/05/11 09:53:59;;;;;;;;;;;;;;;;;;5070074;28;19925;-69
2023/05/11 09:56:26;;;;;;;;;;;;;;;;;;5071003;28;19928;-69
2023/05/11 09:58:54;;;;;;;;;;;;;;;;;;5066050;28;19991;-68
2023/05/11 10:01:21;;;;;;;;;;;;;;;;;;5063464;28;20007;-68
2023/05/11 10:03:48;;;;;;;;;;;;;;;;;;5069665;28;20312;-69
2023/05/11 10:06:15;;;;;;;;;;;;;;;;;;5073170;28;19932;-68
2023/05/11 10:08:42;;;;;;;;;;;;;;;;;;5073065;28;20380;-69
2023/05/11 10:11:09;;;;;;;;;;;;;;;;;;5069851;28;19982;-68
2023/05/11 10:13:36;;;;;;;;;;;;;;;;;;5073952;28;20322;-69
2023/05/11 10:16:04;;;;;;;;;;;;;;;;;;5069874;28;21472;-68
2023/05/11 10:18:31;;;;;;;;;;;;;;;;;;5071157;28;20024;-69
2023/05/11 10:20:58;;;;;;;;;;;;;;;;;;5072857;28;19924;-68
2023/05/11 10:23:25;;;;;;;;;;;;;;;;;;5068640;28;19929;-70
2023/05/11 10:25:52;;;;;;;;;;;;;;;;;;5071448;28;19982;-69
2023/05/11 10:28:19;;;;;;;;;;;;;;;;;;5074197;28;19932;-69
2023/05/11 10:30:46;;;;;;;;;;;;;;;;;;5072866;28;19978;-68
2023/05/11 10:33:13;;;;;;;;;;;;;;;;;;5072167;28;20399;-69
2023/05/11 10:35:40;;;;;;;;;;;;;;;;;;5069880;28;20007;-68
2023/05/11 10:38:07;;;;;;;;;;;;;;;;;;5074062;28;19925;-68
2023/05/11 10:40:34;;;;;;;;;;;;;;;;;;5074769;28;20376;-68
2023/05/11 10:43:01;;;;;;;;;;;;;;;;;;5066143;28;19970;-67
2023/05/11 10:45:28;;;;;;;;;;;;;;;;;;5070561;28;20394;-69
2023/05/11 10:47:55;;;;;;;;;;;;;;;;;;5074075;28;19925;-68
2023/05/11 10:50:22;;;;;;;;;;;;;;;;;;5067097;28;20441;-67
2023/05/11 10:52:49;;;;;;;;;;;;;;;;;;5070447;28;19970;-67
2023/05/11 10:55:16;;;;;;;;;;;;;;;;;;5073598;28;19946;-68
2023/05/11 10:57:43;;;;;;;;;;;;;;;;;;5066472;28;20402;-68
2023/05/11 11:00:11;;;;;;;;;;;;;;;;;;5069436;28;19975;-67
2023/05/11 11:02:38;;;;;;;;;;;;;;;;;;5070279;28;20015;-68
2023/05/11 11:05:08;;;;;;;;;;;;;;;;;;5067123;28;20457;-68
2023/05/11 11:07:35;;;;;;;;;;;;;;;;;;5070372;28;19970;-68
2023/05/11 11:10:05;;;;;;;;;;;;;;;;;;5069709;28;19970;-68
2023/05/11 11:12:33;;;;;;;;;;;;;;;;;;5071167;28;19960;-68
2023/05/11 11:15:00;;;;;;;;;;;;;;;;;;5072683;28;19924;-68
2023/05/11 11:17:30;;;;;;;;;;;;;;;;;;5074193;28;19924;-68
2023/05/11 11:19:57;;;;;;;;;;;;;;;;;;5072175;28;20354;-68
2023/05/11 11:22:24;;;;;;;;;;;;;;;;;;5073045;28;19931;-67
2023/05/11 11:24:51;;;;;;;;;;;;;;;;;;5062305;28;19925;-69
2023/05/11 11:27:18;;;;;;;;;;;;;;;;;;5054927;28;19940;-68
2023/05/11 11:29:45;;;;;;;;;;;;;;;;;;5074135;28;20352;-68
2023/05/11 11:32:12;;;;;;;;;;;;;;;;;;5073566;28;19982;-69
2023/05/11 11:34:39;;;;;;;;;;;;;;;;;;5072632;28;19929;-68
2023/05/11 11:37:07;;;;;;;;;;;;;;;;;;5071959;28;20294;-68
2023/05/11 11:39:34;;;;;;;;;;;;;;;;;;5072003;28;19930;-68
2023/05/11 11:42:01;;;;;;;;;;;;;;;;;;5072071;28;20458;-68
2023/05/11 11:44:28;;;;;;;;;;;;;;;;;;5066690;28;19925;-68
2023/05/11 11:46:55;;;;;;;;;;;;;;;;;;5082708;28;19924;-68
2023/05/11 11:49:22;;;;;;;;;;;;;;;;;;5073011;28;19980;-68
2023/05/11 11:51:49;;;;;;;;;;;;;;;;;;5068258;28;19935;-68
2023/05/11 11:54:16;;;;;;;;;;;;;;;;;;5071044;28;19925;-68
2023/05/11 11:56:43;;;;;;;;;;;;;;;;;;5072540;28;19975;-68
2023/05/11 11:59:12;;;;;;;;;;;;;;;;;;5071469;28;19935;-68
2023/05/11 12:01:39;;;;;;;;;;;;;;;;;;5072864;28;19964;-67
2023/05/11 12:04:07;;;;;;;;;;;;;;;;;;5072643;28;19931;-67
2023/05/11 12:06:34;;;;;;;;;;;;;;;;;;5076595;28;19924;-68
2023/05/11 12:09:01;;;;;;;;;;;;;;;;;;5076466;28;19931;-68
2023/05/11 12:11:28;;;;;;;;;;;;;;;;;;5072900;28;20016;-67
2023/05/11 12:13:55;;;;;;;;;;;;;;;;;;5071367;28;19978;-68
2023/05/11 12:16:22;;;;;;;;;;;;;;;;;;5072934;28;20724;-68
2023/05/11 12:18:49;;;;;;;;;;;;;;;;;;5072399;28;19929;-68
2023/05/11 12:21:16;;;;;;;;;;;;;;;;;;5069321;28;19999;-68
2023/05/11 12:23:43;;;;;;;;;;;;;;;;;;5071922;28;19925;-68
2023/05/11 12:26:10;;;;;;;;;;;;;;;;;;5072639;28;19924;-68
2023/05/11 12:28:37;;;;;;;;;;;;;;;;;;5072698;28;19924;-68
2023/05/11 12:31:04;;;;;;;;;;;;;;;;;;5070252;28;19963;-68
2023/05/11 12:33:31;;;;;;;;;;;;;;;;;;5071943;28;19925;-68
2023/05/11 12:35:58;;;;;;;;;;;;;;;;;;5070146;28;20383;-68
2023/05/11 12:38:25;;;;;;;;;;;;;;;;;;5080759;28;19928;-68
2023/05/11 12:40:52;;;;;;;;;;;;;;;;;;5072217;28;19924;-68
2023/05/11 12:43:19;;;;;;;;;;;;;;;;;;5070294;28;19978;-68
2023/05/11 12:45:46;;;;;;;;;;;;;;;;;;5068872;28;19967;-68
2023/05/11 12:48:13;;;;;;;;;;;;;;;;;;5070518;28;20284;-67
2023/05/11 12:50:41;;;;;;;;;;;;;;;;;;5069952;28;19929;-68
2023/05/11 12:53:08;;;;;;;;;;;;;;;;;;5070782;28;20027;-68
2023/05/11 12:55:35;;;;;;;;;;;;;;;;;;5073348;28;19932;-67
2023/05/11 12:58:02;;;;;;;;;;;;;;;;;;5071312;28;19924;-67
2023/05/11 13:00:29;;;;;;;;;;;;;;;;;;5071734;28;20284;-67
2023/05/11 13:02:56;;;;;;;;;;;;;;;;;;5071523;28;19924;-68
2023/05/11 13:05:23;;;;;;;;;;;;;;;;;;5069824;28;20346;-68
2023/05/11 13:07:50;;;;;;;;;;;;;;;;;;5071432;28;19924;-67
2023/05/11 13:10:17;;;;;;;;;;;;;;;;;;5070912;28;19925;-67
2023/05/11 13:12:44;;;;;;;;;;;;;;;;;;5068473;28;19970;-66
2023/05/11 13:15:12;;;;;;;;;;;;;;;;;;5069831;28;19956;-67
2023/05/11 13:17:39;;;;;;;;;;;;;;;;;;5070929;28;19931;-66
2023/05/11 13:20:06;;;;;;;;;;;;;;;;;;5067524;28;19970;-66
2023/05/11 13:22:33;;;;;;;;;;;;;;;;;;5061300;28;19924;-66
2023/05/11 13:25:00;;;;;;;;;;;;;;;;;;5070366;28;19928;-67
2023/05/11 13:27:27;;;;;;;;;;;;;;;;;;5071767;28;20385;-67
2023/05/11 13:29:54;;;;;;;;;;;;;;;;;;5072562;28;19924;-68
2023/05/11 13:32:21;;;;;;;;;;;;;;;;;;5070649;28;19924;-65
2023/05/11 13:34:48;;;;;;;;;;;;;;;;;;5071177;28;19928;-64
2023/05/11 13:37:15;;;;;;;;;;;;;;;;;;5070550;28;19928;-64
2023/05/11 13:39:42;;;;;;;;;;;;;;;;;;5073481;28;19924;-65
2023/05/11 13:42:09;;;;;;;;;;;;;;;;;;5068795;28;19960;-66
2023/05/11 13:44:36;;;;;;;;;;;;;;;;;;5070179;28;20383;-66
2023/05/11 13:47:03;;;;;;;;;;;;;;;;;;5071063;28;20229;-66
2023/05/11 13:49:30;;;;;;;;;;;;;;;;;;5067058;28;20456;-65
2023/05/11 13:51:58;;;;;;;;;;;;;;;;;;5066357;28;19925;-67
2023/05/11 13:54:25;;;;;;;;;;;;;;;;;;5066921;28;19924;-66
2023/05/11 13:56:52;;;;;;;;;;;;;;;;;;5069450;28;20457;-65
2023/05/11 13:59:19;;;;;;;;;;;;;;;;;;5069050;28;19928;-67
2023/05/11 14:01:46;;;;;;;;;;;;;;;;;;5065458;28;20371;-65
2023/05/11 14:04:13;;;;;;;;;;;;;;;;;;5067906;28;19981;-65
2023/05/11 14:06:41;;;;;;;;;;;;;;;;;;5069295;28;20002;-65
2023/05/11 14:09:08;;;;;;;;;;;;;;;;;;5070098;28;19932;-65
2023/05/11 14:11:35;;;;;;;;;;;;;;;;;;5067366;28;19993;-64
2023/05/11 14:14:02;;;;;;;;;;;;;;;;;;5061573;28;20399;-65
2023/05/11 14:16:29;;;;;;;;;;;;;;;;;;5064779;28;19955;-65
2023/05/11 14:18:56;;;;;;;;;;;;;;;;;;5071130;28;19925;-66
2023/05/11 14:21:24;;;;;;;;;;;;;;;;;;5066901;28;19928;-66
2023/05/11 14:23:51;;;;;;;;;;;;;;;;;;5066515;28;19928;-65
2023/05/11 14:26:18;;;;;;;;;;;;;;;;;;5062852;28;20015;-65
2023/05/11 14:28:45;;;;;;;;;;;;;;;;;;5054341;28;20293;-65
2023/05/11 14:31:12;;;;;;;;;;;;;;;;;;5070065;28;19932;-66
2023/05/11 14:33:39;;;;;;;;;;;;;;;;;;5072665;28;20333;-65
2023/05/11 14:36:06;;;;;;;;;;;;;;;;;;5072732;28;19932;-65
2023/05/11 14:38:33;;;;;;;;;;;;;;;;;;5071791;28;20025;-65
2023/05/11 14:41:00;;;;;;;;;;;;;;;;;;5073630;28;19924;-65
2023/05/11 14:43:27;;;;;;;;;;;;;;;;;;5071576;28;19964;-66
2023/05/11 14:45:54;;;;;;;;;;;;;;;;;;5064949;28;19967;-67
2023/05/11 14:48:21;;;;;;;;;;;;;;;;;;5072047;28;19940;-66
2023/05/11 14:50:48;;;;;;;;;;;;;;;;;;5072600;28;20321;-67
2023/05/11 14:53:15;;;;;;;;;;;;;;;;;;5069973;28;19925;-68
2023/05/11 14:55:42;;;;;;;;;;;;;;;;;;5068965;28;19978;-69
2023/05/11 14:58:09;;;;;;;;;;;;;;;;;;5068108;28;19929;-68
2023/05/11 15:00:39;;;;;;;;;;;;;;;;;;5069212;28;19932;-68
2023/05/11 15:03:06;;;;;;;;;;;;;;;;;;5080840;28;19924;-68
2023/05/11 15:05:33;;;;;;;;;;;;;;;;;;5070408;28;20332;-68
2023/05/11 15:08:00;;;;;;;;;;;;;;;;;;5071546;28;20306;-68
2023/05/11 15:10:27;;;;;;;;;;;;;;;;;;5068137;28;20001;-68
2023/05/11 15:12:54;;;;;;;;;;;;;;;;;;5066607;28;19924;-68
2023/05/11 15:15:21;;;;;;;;;;;;;;;;;;5072369;28;20291;-69
2023/05/11 15:17:48;;;;;;;;;;;;;;;;;;5070250;28;20386;-68
2023/05/11 15:20:15;;;;;;;;;;;;;;;;;;5065552;28;19929;-67
2023/05/11 15:22:42;;;;;;;;;;;;;;;;;;5068924;28;19978;-68
2023/05/11 15:25:09;;;;;;;;;;;;;;;;;;5064511;28;19924;-68
2023/05/11 15:27:36;;;;;;;;;;;;;;;;;;5067896;28;19982;-67
2023/05/11 15:30:03;;;;;;;;;;;;;;;;;;5063102;28;19932;-67
2023/05/11 15:32:30;;;;;;;;;;;;;;;;;;5070286;28;20442;-67
2023/05/11 15:34:57;;;;;;;;;;;;;;;;;;5070363;28;19978;-70
2023/05/11 15:37:24;;;;;;;;;;;;;;;;;;5073330;28;19974;-67
2023/05/11 15:39:51;;;;;;;;;;;;;;;;;;5068021;28;19931;-68
2023/05/11 15:42:18;;;;;;;;;;;;;;;;;;5059222;28;20018;-67
2023/05/11 15:44:46;;;;;;;;;;;;;;;;;;5061231;28;19963;-68
2023/05/11 15:47:13;;;;;;;;;;;;;;;;;;5070133;28;19950;-67
2023/05/11 15:49:40;;;;;;;;;;;;;;;;;;5063592;28;20388;-68
2023/05/11 15:52:07;;;;;;;;;;;;;;;;;;5067061;28;19963;-68
2023/05/11 15:54:34;;;;;;;;;;;;;;;;;;5067066;28;19924;-68
2023/05/11 15:57:01;;;;;;;;;;;;;;;;;;5067657;28;20387;-68
2023/05/11 15:59:28;;;;;;;;;;;;;;;;;;5069765;28;19924;-67
2023/05/11 16:01:55;;;;;;;;;;;;;;;;;;5072307;28;20436;-68
2023/05/11 16:04:22;;;;;;;;;;;;;;;;;;5062794;28;19924;-68
2023/05/11 16:06:49;;;;;;;;;;;;;;;;;;5070111;28;19924;-68
2023/05/11 16:09:16;;;;;;;;;;;;;;;;;;5070840;28;19924;-68
2023/05/11 16:11:44;;;;;;;;;;;;;;;;;;5055712;28;20350;-68
2023/05/11 16:14:11;;;;;;;;;;;;;;;;;;5063021;28;19938;-67
2023/05/11 16:16:38;;;;;;;;;;;;;;;;;;5059213;28;19931;-68
2023/05/11 16:19:05;;;;;;;;;;;;;;;;;;5075147;28;19928;-67
2023/05/11 16:21:33;;;;;;;;;;;;;;;;;;5070404;28;19991;-68
2023/05/11 16:23:59;;;;;;;;;;;;;;;;;;5069721;28;19924;-67
2023/05/11 16:26:26;;;;;;;;;;;;;;;;;;5070865;28;20341;-67
2023/05/11 16:28:53;;;;;;;;;;;;;;;;;;5074199;28;19929;-67
2023/05/11 16:31:21;;;;;;;;;;;;;;;;;;5066327;28;19924;-66
2023/05/11 16:33:48;;;;;;;;;;;;;;;;;;5076606;28;20283;-66
2023/05/11 16:36:15;;;;;;;;;;;;;;;;;;5078905;28;19985;-67
2023/05/11 16:38:42;;;;;;;;;;;;;;;;;;5066658;28;19928;-67
2023/05/11 16:41:10;;;;;;;;;;;;;;;;;;5072202;28;20018;-66
2023/05/11 16:43:40;;;;;;;;;;;;;;;;;;5068938;28;20303;-66